Time;durP1;ratioP1;P1;durP2;ratioP2;P2;SDS_P1;SDS_P2;PMS_P1;PMS_P2;Temp;Humidity;BMP_temperature;BMP_pressure;BME280_temperature;BME280_humidity;BME280_pressure;Samples;Min_cycle;Max_cycle;Signal;HPM_P1;HPM_P2
2023/07/03 00:00:06;;;;;;;11.57;6.90;;;16.10;99.90;;;;;;5043354;28;20854;-77
2023/07/03 00:02:32;;;;;;;10.05;6.85;;;16.10;99.90;;;;;;5054470;28;20507;-77
2023/07/03 00:04:57;;;;;;;10.65;6.97;;;16.00;99.90;;;;;;5043029;28;20418;-77
2023/07/03 00:07:23;;;;;;;8.97;7.10;;;16.10;99.90;;;;;;5031427;28;20893;-77
2023/07/03 00:09:48;;;;;;;10.30;6.70;;;16.00;99.90;;;;;;5032089;28;20398;-77
2023/07/03 00:12:14;;;;;;;11.57;6.88;;;16.00;99.90;;;;;;5033457;28;20490;-77
2023/07/03 00:14:39;;;;;;;9.40;6.87;;;15.80;99.90;;;;;;5041152;28;20428;-77
2023/07/03 00:17:07;;;;;;;10.30;7.20;;;15.90;99.90;;;;;;5053457;28;20481;-77
2023/07/03 00:19:33;;;;;;;9.15;6.68;;;16.00;99.90;;;;;;5054569;28;20403;-78
2023/07/03 00:22:01;;;;;;;10.13;6.37;;;16.00;99.90;;;;;;5055743;28;20445;-78
2023/07/03 00:24:31;;;;;;;10.48;6.97;;;16.00;99.90;;;;;;5041529;28;20880;-78
2023/07/03 00:26:57;;;;;;;11.32;6.75;;;15.90;99.90;;;;;;5035326;28;20387;-78
2023/07/03 00:29:23;;;;;;;8.43;6.68;;;16.00;99.90;;;;;;5035848;28;20387;-78
2023/07/03 00:31:49;;;;;;;8.70;6.25;;;16.00;99.90;;;;;;5037160;28;20389;-78
2023/07/03 00:34:14;;;;;;;10.88;6.80;;;16.00;99.90;;;;;;5048486;28;20409;-77
2023/07/03 00:36:40;;;;;;;10.10;7.22;;;15.90;99.90;;;;;;5048243;28;20399;-77
2023/07/03 00:39:05;;;;;;;8.90;6.80;;;15.90;99.90;;;;;;5033923;28;20413;-78
2023/07/03 00:41:32;;;;;;;9.93;6.45;;;16.10;99.90;;;;;;5033996;28;20423;-77
2023/07/03 00:43:57;;;;;;;8.27;6.80;;;15.90;99.90;;;;;;5033123;28;20391;-77
2023/07/03 00:46:24;;;;;;;9.20;6.10;;;15.90;99.90;;;;;;5031788;28;20379;-77
2023/07/03 00:48:50;;;;;;;8.55;6.50;;;15.90;99.90;;;;;;5052577;28;20756;-77
2023/07/03 00:51:16;;;;;;;10.93;6.88;;;15.90;99.90;;;;;;5051992;28;20453;-77
2023/07/03 00:53:42;;;;;;;9.32;6.90;;;15.90;99.90;;;;;;5035464;28;20386;-77
2023/07/03 00:56:08;;;;;;;8.40;6.72;;;15.90;99.90;;;;;;5038846;28;20410;-76
2023/07/03 00:58:34;;;;;;;8.40;5.95;;;15.90;99.90;;;;;;5033526;28;20379;-78
2023/07/03 01:01:29;;;;;;;8.60;6.20;;;15.90;99.90;;;;;;5033995;28;20480;-77
2023/07/03 01:04:03;;;;;;;11.52;6.90;;;15.90;99.90;;;;;;5005794;28;20400;-77
2023/07/03 01:06:35;;;;;;;8.38;6.60;;;15.90;99.90;;;;;;5019809;28;20389;-78
2023/07/03 01:09:02;;;;;;;8.40;6.30;;;16.00;99.90;;;;;;5054695;28;20381;-78
2023/07/03 01:11:28;;;;;;;9.75;7.32;;;16.00;99.90;;;;;;5047950;28;20391;-77
2023/07/03 01:13:58;;;;;;;11.07;7.20;;;16.00;99.90;;;;;;5034072;28;20445;-78
2023/07/03 01:16:24;;;;;;;8.43;6.60;;;16.00;99.90;;;;;;5033411;28;20371;-78
2023/07/03 01:18:53;;;;;;;8.45;6.45;;;16.00;99.90;;;;;;5051128;28;20423;-77
2023/07/03 01:21:28;;;;;;;8.88;6.80;;;16.00;99.90;;;;;;5053144;28;20464;-78
2023/07/03 01:23:58;;;;;;;10.15;7.28;;;16.10;99.90;;;;;;5053346;28;20887;-77
2023/07/03 01:26:25;;;;;;;7.93;6.40;;;16.00;99.90;;;;;;5051144;28;20403;-77
2023/07/03 01:28:56;;;;;;;9.23;6.43;;;16.00;99.90;;;;;;5031258;28;20406;-78
2023/07/03 01:31:24;;;;;;;10.15;7.00;;;16.00;99.90;;;;;;5034047;28;20406;-78
2023/07/03 01:33:52;;;;;;;11.25;6.40;;;16.10;99.90;;;;;;5034169;28;20378;-78
2023/07/03 01:36:18;;;;;;;13.00;7.10;;;16.10;99.90;;;;;;5033355;28;20528;-78
2023/07/03 01:38:46;;;;;;;11.20;6.80;;;16.10;99.90;;;;;;5053711;28;20397;-78
2023/07/03 01:41:14;;;;;;;8.40;6.60;;;16.10;99.90;;;;;;5054305;28;20859;-77
2023/07/03 01:43:41;;;;;;;9.02;6.55;;;16.20;99.90;;;;;;5049647;28;20399;-78
2023/07/03 01:46:07;;;;;;;7.97;6.45;;;20.30;99.90;;;;;;5034890;28;20398;-78
2023/07/03 01:48:33;;;;;;;12.70;7.00;;;16.20;99.90;;;;;;5034953;28;20402;-77
2023/07/03 01:51:01;;;;;;;9.10;6.70;;;16.20;99.90;;;;;;5036070;28;20881;-78
2023/07/03 01:53:31;;;;;;;9.90;7.00;;;16.30;99.90;;;;;;5038155;28;20391;-78
2023/07/03 01:56:06;;;;;;;8.98;6.95;;;16.40;99.90;;;;;;5053079;28;20408;-78
2023/07/03 01:58:39;;;;;;;8.20;6.20;;;16.40;99.90;;;;;;5050711;28;20402;-78
2023/07/03 02:01:08;;;;;;;8.25;6.20;;;16.50;99.90;;;;;;5039019;28;20762;-77
2023/07/03 02:03:40;;;;;;;9.23;6.30;;;16.40;99.90;;;;;;5040009;28;20411;-76
2023/07/03 02:06:12;;;;;;;9.48;6.38;;;16.40;99.90;;;;;;5039460;28;20413;-78
2023/07/03 02:08:38;;;;;;;9.20;6.50;;;16.40;99.90;;;;;;5041579;28;20412;-78
2023/07/03 02:11:11;;;;;;;9.45;6.70;;;16.50;99.90;;;;;;5033881;28;20808;-78
2023/07/03 02:13:37;;;;;;;8.55;6.50;;;16.50;99.90;;;;;;5039334;28;20383;-77
2023/07/03 02:16:02;;;;;;;8.67;6.37;;;16.60;99.90;;;;;;5036065;28;20409;-78
2023/07/03 02:18:28;;;;;;;11.30;6.90;;;16.40;99.90;;;;;;5060120;22;20495;-80
2023/07/03 02:20:53;;;;;;;10.20;6.95;;;16.50;99.90;;;;;;5034586;28;20415;-79
2023/07/03 02:23:19;;;;;;;10.90;6.40;;;16.80;99.90;;;;;;5037886;28;20873;-80
2023/07/03 02:25:44;;;;;;;12.40;6.80;;;16.50;99.90;;;;;;5038010;28;20398;-80
2023/07/03 02:28:11;;;;;;;9.70;6.57;;;16.50;99.90;;;;;;5041248;28;20397;-79
2023/07/03 02:30:37;;;;;;;9.10;6.80;;;16.60;99.90;;;;;;5019324;28;20381;-80
2023/07/03 02:33:02;;;;;;;7.83;6.73;;;16.60;99.90;;;;;;5020215;28;20917;-80
2023/07/03 02:35:28;;;;;;;8.65;6.35;;;16.20;99.90;;;;;;5018075;28;20440;-80
2023/07/03 02:37:53;;;;;;;8.20;6.60;;;16.60;99.90;;;;;;5019182;28;20393;-80
2023/07/03 02:40:19;;;;;;;10.38;7.07;;;16.50;99.90;;;;;;5020594;28;20388;-79
2023/07/03 02:42:44;;;;;;;7.80;6.53;;;16.50;99.90;;;;;;5027810;28;20397;-79
2023/07/03 02:45:10;;;;;;;11.97;6.90;;;16.60;99.90;;;;;;5028545;28;20388;-79
2023/07/03 02:47:37;;;;;;;8.50;7.00;;;16.60;99.90;;;;;;5031582;28;20441;-79
2023/07/03 02:50:04;;;;;;;8.27;6.20;;;16.70;99.90;;;;;;5032214;28;20399;-79
2023/07/03 02:52:29;;;;;;;9.38;6.30;;;16.80;99.90;;;;;;5031911;28;20487;-79
2023/07/03 02:54:55;;;;;;;10.03;6.77;;;16.90;99.90;;;;;;5024724;28;20409;-80
2023/07/03 02:57:20;;;;;;;7.15;5.70;;;18.20;99.90;;;;;;5019347;28;20408;-80
2023/07/03 02:59:46;;;;;;;10.37;6.60;;;17.20;99.90;;;;;;5021605;28;20397;-80
2023/07/03 03:02:11;;;;;;;10.93;7.03;;;17.20;99.90;;;;;;5019337;28;20388;-80
2023/07/03 03:04:37;;;;;;;9.13;6.65;;;17.40;99.90;;;;;;5020623;28;20483;-79
2023/07/03 03:07:03;;;;;;;9.43;6.67;;;17.70;99.90;;;;;;5018487;28;20400;-80
2023/07/03 03:09:28;;;;;;;9.93;6.53;;;17.90;99.90;;;;;;5019706;28;20407;-80
2023/07/03 03:11:54;;;;;;;11.25;6.88;;;18.20;99.90;;;;;;5019591;28;20477;-80
2023/07/03 03:14:19;;;;;;;10.50;7.40;;;18.30;99.90;;;;;;5020025;28;20408;-80
2023/07/03 03:16:45;;;;;;;12.73;7.00;;;18.40;99.90;;;;;;5018980;28;20755;-80
2023/07/03 03:19:10;;;;;;;10.03;6.83;;;18.50;99.90;;;;;;5019518;28;20408;-80
2023/07/03 03:21:36;;;;;;;9.83;7.00;;;18.60;99.90;;;;;;5018297;28;20404;-80
2023/07/03 03:24:02;;;;;;;8.70;6.80;;;18.60;99.90;;;;;;5018885;28;20385;-80
2023/07/03 03:26:28;;;;;;;9.88;7.05;;;18.60;99.90;;;;;;5017420;28;20384;-80
2023/07/03 03:28:53;;;;;;;11.68;6.75;;;18.60;99.90;;;;;;5019322;28;20381;-80
2023/07/03 03:31:19;;;;;;;9.90;6.30;;;18.70;99.90;;;;;;5021117;28;20385;-80
2023/07/03 03:33:44;;;;;;;11.10;6.60;;;18.70;99.90;;;;;;5019028;28;20763;-80
2023/07/03 03:36:10;;;;;;;11.85;6.10;;;18.70;99.90;;;;;;5019868;28;20945;-81
2023/07/03 03:38:35;;;;;;;10.00;6.00;;;18.60;99.90;;;;;;5020885;28;20794;-80
2023/07/03 03:41:03;;;;;;;10.07;6.90;;;18.60;99.90;;;;;;5017985;28;20384;-81
2023/07/03 03:43:29;;;;;;;9.82;6.40;;;18.70;99.90;;;;;;5020292;28;20385;-80
2023/07/03 03:45:59;;;;;;;8.80;6.85;;;18.70;99.90;;;;;;5018742;28;20394;-80
2023/07/03 03:48:26;;;;;;;9.70;6.88;;;18.60;99.90;;;;;;5019276;28;20392;-80
2023/07/03 03:50:52;;;;;;;9.52;7.10;;;18.70;99.90;;;;;;5020742;28;20397;-80
2023/07/03 03:53:18;;;;;;;9.98;6.90;;;18.60;99.90;;;;;;5020962;28;20812;-83
2023/07/03 03:55:47;;;;;;;10.48;6.55;;;19.30;99.90;;;;;;5017962;28;20444;-80
2023/07/03 03:58:15;;;;;;;8.80;5.90;;;18.70;99.90;;;;;;5017817;28;20424;-80
2023/07/03 04:00:41;;;;;;;10.80;6.70;;;19.00;99.90;;;;;;5017938;28;20902;-80
2023/07/03 04:03:06;;;;;;;7.95;6.20;;;18.70;99.90;;;;;;5019931;28;20424;-80
2023/07/03 04:05:32;;;;;;;12.20;6.70;;;18.70;99.90;;;;;;5017405;28;20831;-80
2023/07/03 04:07:58;;;;;;;9.27;6.90;;;18.70;99.90;;;;;;5017837;28;20482;-80
2023/07/03 04:10:23;;;;;;;11.77;6.80;;;18.70;99.90;;;;;;5017250;28;20435;-80
2023/07/03 04:12:49;;;;;;;10.50;6.33;;;18.70;99.90;;;;;;5018490;28;20407;-80
2023/07/03 04:15:15;;;;;;;11.70;6.50;;;18.80;99.90;;;;;;5020459;28;20409;-80
2023/07/03 04:17:40;;;;;;;8.75;6.80;;;18.70;99.90;;;;;;5022227;28;20385;-80
2023/07/03 04:20:07;;;;;;;12.03;7.00;;;18.70;99.90;;;;;;5020543;28;20469;-80
2023/07/03 04:22:33;;;;;;;12.70;6.93;;;18.70;99.90;;;;;;5019458;28;20408;-80
2023/07/03 04:24:59;;;;;;;12.35;6.93;;;18.80;99.90;;;;;;5018157;28;20431;-80
2023/07/03 04:27:25;;;;;;;12.80;7.00;;;18.80;99.90;;;;;;5016491;28;20389;-80
2023/07/03 04:29:50;;;;;;;10.30;6.73;;;18.80;99.90;;;;;;5016576;28;20396;-81
2023/07/03 04:32:16;;;;;;;11.50;6.57;;;18.80;99.90;;;;;;5018945;28;20381;-80
2023/07/03 04:34:41;;;;;;;9.77;6.50;;;18.70;99.90;;;;;;5018928;28;20416;-80
2023/07/03 04:37:08;;;;;;;9.17;6.13;;;18.70;99.90;;;;;;5016785;28;20499;-80
2023/07/03 04:39:34;;;;;;;9.63;6.65;;;18.70;99.90;;;;;;5014549;28;20396;-81
2023/07/03 04:42:00;;;;;;;11.20;6.50;;;18.80;99.90;;;;;;5016721;28;20393;-80
2023/07/03 04:44:29;;;;;;;12.52;6.30;;;18.70;99.90;;;;;;5018391;28;20396;-80
2023/07/03 04:46:55;;;;;;;11.52;6.70;;;18.70;99.90;;;;;;5023049;28;20408;-80
2023/07/03 04:49:26;;;;;;;9.35;6.47;;;18.70;99.90;;;;;;5017536;28;20408;-80
2023/07/03 04:51:52;;;;;;;11.52;6.95;;;18.70;99.90;;;;;;5016927;28;20388;-81
2023/07/03 04:54:19;;;;;;;10.50;6.63;;;18.70;99.90;;;;;;5019279;28;20412;-80
2023/07/03 04:56:46;;;;;;;10.73;6.82;;;18.70;99.90;;;;;;5021928;28;20492;-79
2023/07/03 04:59:12;;;;;;;10.13;7.50;;;18.70;99.90;;;;;;5025297;28;20391;-81
2023/07/03 05:01:39;;;;;;;10.50;7.10;;;18.70;99.90;;;;;;5022204;28;20913;-79
2023/07/03 05:04:05;;;;;;;10.15;6.20;;;18.80;99.90;;;;;;5022074;28;20771;-79
2023/07/03 05:06:30;;;;;;;10.50;6.60;;;18.50;99.90;;;;;;5016059;28;20898;-80
2023/07/03 05:08:56;;;;;;;11.05;6.38;;;18.80;99.90;;;;;;5014234;28;20385;-80
2023/07/03 05:11:21;;;;;;;8.47;5.73;;;19.00;99.90;;;;;;5014735;28;20418;-80
2023/07/03 05:13:47;;;;;;;9.70;6.40;;;18.80;99.90;;;;;;5014960;28;20389;-80
2023/07/03 05:16:14;;;;;;;8.67;6.30;;;18.70;99.90;;;;;;5013293;28;20405;-82
2023/07/03 05:18:39;;;;;;;10.70;6.85;;;18.60;99.90;;;;;;5018709;28;20393;-80
2023/07/03 05:21:06;;;;;;;9.88;6.47;;;18.70;99.90;;;;;;5017084;28;20920;-81
2023/07/03 05:23:31;;;;;;;8.70;6.22;;;18.80;99.90;;;;;;5020360;28;20384;-81
2023/07/03 05:25:57;;;;;;;12.07;7.03;;;18.80;99.90;;;;;;5024857;28;20542;-81
2023/07/03 05:28:24;;;;;;;10.93;6.40;;;18.80;99.90;;;;;;5032719;28;20756;-81
2023/07/03 05:30:57;;;;;;;11.90;7.87;;;18.80;99.90;;;;;;5024191;28;20381;-82
2023/07/03 05:33:23;;;;;;;10.03;6.40;;;18.90;99.90;;;;;;5026680;28;20396;-81
2023/07/03 05:35:49;;;;;;;12.57;7.30;;;18.90;99.90;;;;;;5024381;28;20432;-81
2023/07/03 05:38:14;;;;;;;9.38;6.45;;;19.50;99.90;;;;;;5023517;28;20384;-80
2023/07/03 05:40:40;;;;;;;12.50;6.60;;;18.80;99.90;;;;;;5021466;28;21148;-81
2023/07/03 05:43:05;;;;;;;10.43;7.30;;;18.90;99.90;;;;;;5027643;28;20424;-80
2023/07/03 05:45:31;;;;;;;12.20;6.20;;;18.90;99.90;;;;;;5022923;28;20938;-82
2023/07/03 05:47:56;;;;;;;12.77;6.60;;;18.80;99.90;;;;;;5021641;28;20401;-81
2023/07/03 05:50:22;;;;;;;11.38;6.97;;;18.90;99.90;;;;;;5022796;28;20408;-80
2023/07/03 05:52:48;;;;;;;11.50;6.90;;;18.90;99.90;;;;;;5022157;28;20401;-81
2023/07/03 05:55:14;;;;;;;11.68;7.05;;;18.90;99.90;;;;;;5021140;28;20472;-79
2023/07/03 05:57:39;;;;;;;10.45;6.80;;;18.90;99.90;;;;;;5018151;28;20461;-81
2023/07/03 06:00:12;;;;;;;9.90;6.40;;;19.00;99.90;;;;;;5020193;28;20415;-81
2023/07/03 06:02:39;;;;;;;10.48;6.50;;;19.00;99.90;;;;;;5020325;28;20477;-81
2023/07/03 06:05:05;;;;;;;11.40;6.60;;;19.00;99.90;;;;;;5017906;28;20389;-80
2023/07/03 06:07:31;;;;;;;9.93;6.25;;;19.00;99.90;;;;;;5018521;28;20401;-81
2023/07/03 06:09:57;;;;;;;9.90;6.95;;;19.10;99.90;;;;;;5020084;28;20424;-80
2023/07/03 06:12:28;;;;;;;9.87;7.20;;;17.70;99.90;;;;;;5017811;28;20404;-81
2023/07/03 06:14:57;;;;;;;12.63;7.30;;;19.00;99.90;;;;;;5020008;28;20420;-80
2023/07/03 06:17:25;;;;;;;10.63;6.95;;;19.10;99.90;;;;;;5019757;28;20381;-81
2023/07/03 06:19:51;;;;;;;12.20;6.72;;;19.10;99.90;;;;;;5020045;28;20424;-80
2023/07/03 06:22:16;;;;;;;10.60;6.88;;;19.20;99.90;;;;;;5019366;28;20404;-80
2023/07/03 06:24:42;;;;;;;10.57;7.07;;;19.20;99.90;;;;;;5021277;28;20452;-80
2023/07/03 06:27:08;;;;;;;9.98;7.05;;;19.70;99.90;;;;;;5020187;28;20388;-80
2023/07/03 06:29:33;;;;;;;8.87;6.50;;;19.30;99.90;;;;;;5025405;28;20953;-80
2023/07/03 06:31:59;;;;;;;13.03;7.30;;;19.30;99.90;;;;;;5027751;28;20463;-80
2023/07/03 06:34:24;;;;;;;11.57;7.00;;;19.50;99.90;;;;;;5028901;28;20412;-79
2023/07/03 06:36:50;;;;;;;10.80;6.87;;;19.40;99.90;;;;;;5028753;28;20393;-80
2023/07/03 06:39:16;;;;;;;13.15;7.20;;;19.50;99.90;;;;;;5026498;28;20487;-80
2023/07/03 06:41:41;;;;;;;10.18;6.70;;;19.60;99.90;;;;;;5022434;28;20415;-80
2023/07/03 06:44:12;;;;;;;11.70;6.10;;;19.70;99.90;;;;;;5026041;28;20423;-80
2023/07/03 06:46:38;;;;;;;9.20;6.55;;;19.60;99.90;;;;;;5026220;28;20388;-80
2023/07/03 06:49:04;;;;;;;11.57;6.77;;;19.60;99.90;;;;;;5024175;28;20409;-81
2023/07/03 06:51:29;;;;;;;8.70;6.32;;;19.60;99.90;;;;;;5022416;28;20389;-80
2023/07/03 06:53:55;;;;;;;10.37;6.43;;;19.60;99.90;;;;;;5021305;28;20397;-81
2023/07/03 06:56:21;;;;;;;11.30;7.10;;;19.70;99.90;;;;;;5019709;28;20396;-81
2023/07/03 06:58:48;;;;;;;11.70;7.40;;;19.70;99.90;;;;;;5021368;28;20559;-81
2023/07/03 07:01:14;;;;;;;9.65;7.03;;;18.60;99.90;;;;;;5021849;28;20385;-80
2023/07/03 07:03:40;;;;;;;11.15;6.53;;;19.90;99.90;;;;;;5031420;28;20472;-81
2023/07/03 07:06:19;;;;;;;9.65;6.35;;;19.80;99.90;;;;;;5026250;28;20415;-81
2023/07/03 07:08:45;;;;;;;11.00;6.60;;;20.70;99.90;;;;;;5023731;28;20795;-79
2023/07/03 07:11:13;;;;;;;11.93;6.25;;;19.90;99.90;;;;;;5024185;28;20508;-81
2023/07/03 07:13:40;;;;;;;10.82;6.40;;;19.90;99.90;;;;;;5025894;28;20393;-80
2023/07/03 07:16:15;;;;;;;9.50;6.67;;;19.80;99.90;;;;;;5023674;28;20405;-81
2023/07/03 07:18:41;;;;;;;12.10;7.38;;;20.00;99.90;;;;;;5028048;28;20494;-81
2023/07/03 07:21:07;;;;;;;12.80;6.60;;;19.90;99.90;;;;;;5030122;28;20407;-81
2023/07/03 07:23:33;;;;;;;11.33;6.40;;;20.20;99.90;;;;;;5026169;28;20475;-81
2023/07/03 07:25:58;;;;;;;12.30;7.03;;;20.10;99.90;;;;;;5024235;28;20396;-81
2023/07/03 07:28:24;;;;;;;9.73;6.10;;;20.20;99.90;;;;;;5022967;28;20405;-80
2023/07/03 07:30:49;;;;;;;11.10;6.90;;;20.40;99.90;;;;;;5022194;28;20403;-81
2023/07/03 07:33:16;;;;;;;10.30;6.70;;;21.60;99.90;;;;;;5022797;28;20422;-82
2023/07/03 07:35:43;;;;;;;10.20;6.50;;;20.20;99.90;;;;;;5023062;28;20405;-82
2023/07/03 07:38:09;;;;;;;11.52;6.43;;;20.60;99.90;;;;;;5024436;28;20405;-81
2023/07/03 07:40:35;;;;;;;10.25;6.07;;;20.40;99.90;;;;;;5024529;28;20847;-81
2023/07/03 07:43:01;;;;;;;9.50;6.30;;;20.50;99.90;;;;;;5023420;28;20431;-81
2023/07/03 07:45:27;;;;;;;7.72;5.93;;;20.40;99.90;;;;;;5022011;28;20396;-80
2023/07/03 07:47:52;;;;;;;14.20;6.80;;;20.50;99.90;;;;;;5022687;28;20400;-81
2023/07/03 07:50:18;;;;;;;12.55;6.95;;;19.60;99.90;;;;;;5022471;28;20461;-81
2023/07/03 07:52:44;;;;;;;8.90;5.90;;;20.50;99.90;;;;;;5022478;28;20420;-82
2023/07/03 07:55:09;;;;;;;10.07;6.10;;;19.40;99.90;;;;;;5020821;28;20409;-81
2023/07/03 07:57:35;;;;;;;14.90;6.50;;;20.70;99.90;;;;;;5020089;28;20438;-81
2023/07/03 08:00:00;;;;;;;11.77;5.83;;;20.80;99.90;;;;;;5019820;28;20392;-81
2023/07/03 08:02:26;;;;;;;7.47;5.20;;;21.00;99.90;;;;;;5019108;28;20381;-81
2023/07/03 08:04:51;;;;;;;10.23;5.70;;;21.70;99.90;;;;;;5018967;28;20428;-81
2023/07/03 08:07:17;;;;;;;8.95;5.70;;;20.80;99.90;;;;;;5018854;28;20417;-82
2023/07/03 08:09:42;;;;;;;12.70;6.30;;;20.80;99.90;;;;;;5021538;28;20424;-81
2023/07/03 08:12:09;;;;;;;12.35;5.72;;;20.80;99.90;;;;;;5020832;28;20389;-79
2023/07/03 08:14:34;;;;;;;10.48;5.82;;;20.90;99.90;;;;;;5020533;28;20487;-81
2023/07/03 08:17:00;;;;;;;9.27;5.55;;;21.00;99.90;;;;;;5020402;28;20416;-81
2023/07/03 08:19:26;;;;;;;9.73;5.55;;;20.70;99.90;;;;;;5058589;22;20427;-82
2023/07/03 08:21:52;;;;;;;11.95;5.93;;;20.60;99.90;;;;;;5027701;28;20388;-81
2023/07/03 08:24:17;;;;;;;11.00;5.97;;;20.80;99.90;;;;;;5036875;28;20406;-80
2023/07/03 08:26:48;;;;;;;9.03;5.57;;;20.80;99.90;;;;;;5036024;28;20862;-81
2023/07/03 08:29:14;;;;;;;10.40;5.80;;;21.00;99.90;;;;;;5036737;28;20425;-81
2023/07/03 08:31:40;;;;;;;10.45;5.95;;;20.90;99.90;;;;;;5035269;28;20387;-80
2023/07/03 08:34:05;;;;;;;11.00;6.00;;;21.40;99.90;;;;;;5023552;28;20405;-80
2023/07/03 08:36:31;;;;;;;12.57;5.70;;;21.10;99.90;;;;;;5013562;28;20580;-81
2023/07/03 08:38:56;;;;;;;9.77;5.60;;;20.90;99.90;;;;;;5015989;28;20397;-80
2023/07/03 08:41:22;;;;;;;11.40;5.70;;;20.80;99.90;;;;;;5014279;28;20488;-80
2023/07/03 08:43:53;;;;;;;8.45;5.38;;;20.80;99.90;;;;;;5026221;28;20414;-81
2023/07/03 08:46:23;;;;;;;9.27;5.60;;;20.80;99.90;;;;;;5047492;28;20391;-81
2023/07/03 08:48:52;;;;;;;9.88;5.55;;;20.70;99.90;;;;;;5035211;28;20431;-81
2023/07/03 08:51:22;;;;;;;10.60;5.60;;;20.90;99.90;;;;;;5035957;28;20384;-81
2023/07/03 08:53:52;;;;;;;9.90;6.45;;;21.10;99.90;;;;;;5026606;28;20391;-81
2023/07/03 08:56:20;;;;;;;11.50;5.70;;;21.20;99.90;;;;;;5033738;28;20399;-82
2023/07/03 08:58:49;;;;;;;10.03;5.00;;;21.10;99.90;;;;;;5043295;28;20402;-80
2023/07/03 09:01:45;;;;;;;11.90;5.38;;;21.10;99.90;;;;;;5055168;28;20399;-79
2023/07/03 09:04:17;;;;;;;9.73;5.30;;;21.10;99.90;;;;;;5040633;28;20376;-80
2023/07/03 09:07:02;;;;;;;8.80;4.77;;;21.00;99.90;;;;;;5016136;28;20748;-80
2023/07/03 09:09:49;;;;;;;8.07;4.40;;;21.00;99.90;;;;;;5015548;28;20403;-81
2023/07/03 09:12:26;;;;;;;10.73;5.50;;;21.10;99.90;;;;;;5036264;28;20391;-80
2023/07/03 09:15:00;;;;;;;9.23;5.65;;;21.00;99.90;;;;;;5045186;28;20418;-81
2023/07/03 09:17:27;;;;;;;10.63;5.70;;;21.10;99.90;;;;;;5035796;28;20393;-81
2023/07/03 09:19:55;;;;;;;9.65;5.50;;;21.20;99.90;;;;;;5016885;28;20408;-80
2023/07/03 09:22:55;;;;;;;7.65;5.50;;;21.30;99.90;;;;;;5015607;28;20384;-81
2023/07/03 09:25:26;;;;;;;11.55;5.30;;;21.10;99.90;;;;;;5008664;28;20825;-81
2023/07/03 09:27:56;;;;;;;9.80;5.43;;;21.10;99.90;;;;;;5016370;28;21038;-81
2023/07/03 09:30:22;;;;;;;8.05;5.38;;;21.10;99.90;;;;;;5013335;28;20405;-81
2023/07/03 09:32:47;;;;;;;7.90;4.63;;;21.40;99.90;;;;;;5012761;28;20740;-81
2023/07/03 09:35:19;;;;;;;10.95;5.13;;;21.60;99.90;;;;;;5027638;28;20442;-81
2023/07/03 09:38:00;;;;;;;7.93;4.70;;;21.70;99.90;;;;;;5029362;28;20397;-82
2023/07/03 09:40:37;;;;;;;6.30;4.50;;;21.60;99.90;;;;;;5022093;28;20540;-81
2023/07/03 09:43:10;;;;;;;7.80;4.20;;;21.90;99.90;;;;;;5034911;28;20777;-80
2023/07/03 09:45:36;;;;;;;7.63;4.90;;;21.80;99.90;;;;;;5033596;28;20422;-80
2023/07/03 09:48:11;;;;;;;8.43;5.30;;;21.70;99.90;;;;;;5034500;28;20873;-81
2023/07/03 09:50:38;;;;;;;8.90;5.50;;;21.90;99.90;;;;;;5024332;28;20463;-80
2023/07/03 09:53:04;;;;;;;11.35;4.80;;;21.80;99.90;;;;;;5015007;28;20389;-81
2023/07/03 09:55:31;;;;;;;8.25;4.70;;;21.90;99.90;;;;;;5012415;28;20454;-81
2023/07/03 09:57:57;;;;;;;8.82;5.20;;;21.90;99.90;;;;;;5015179;28;20396;-81
2023/07/03 10:00:25;;;;;;;7.80;4.70;;;22.00;99.90;;;;;;5016045;28;20389;-83
2023/07/03 10:02:54;;;;;;;8.00;5.07;;;21.90;99.90;;;;;;5013926;28;20389;-82
2023/07/03 10:05:33;;;;;;;7.25;4.90;;;22.00;99.90;;;;;;5014553;28;20924;-83
2023/07/03 10:08:06;;;;;;;7.88;4.10;;;22.00;99.90;;;;;;5018576;28;20397;-82
2023/07/03 10:10:34;;;;;;;7.38;4.30;;;21.90;99.90;;;;;;5016987;28;20403;-81
2023/07/03 10:13:14;;;;;;;7.10;4.28;;;21.90;99.90;;;;;;5035255;28;20387;-81
2023/07/03 10:15:41;;;;;;;7.75;4.50;;;21.70;99.90;;;;;;5034618;28;20407;-81
2023/07/03 10:18:27;;;;;;;7.25;4.40;;;21.30;99.90;;;;;;5034926;28;20390;-81
2023/07/03 10:20:54;;;;;;;8.60;4.50;;;21.50;99.90;;;;;;5017197;28;20405;-83
2023/07/03 10:23:32;;;;;;;9.02;4.25;;;21.50;99.90;;;;;;5016353;28;20391;-81
2023/07/03 10:26:10;;;;;;;7.68;4.45;;;21.50;99.90;;;;;;5013605;28;20384;-82
2023/07/03 10:28:45;;;;;;;6.53;4.35;;;21.80;99.90;;;;;;5014207;28;20480;-81
2023/07/03 10:31:18;;;;;;;6.22;4.10;;;21.00;99.90;;;;;;5014478;28;20388;-81
2023/07/03 10:33:46;;;;;;;9.43;4.97;;;22.10;99.90;;;;;;5014167;28;20411;-82
2023/07/03 10:36:18;;;;;;;5.53;4.00;;;22.00;99.90;;;;;;5014191;28;20412;-83
2023/07/03 10:39:07;;;;;;;5.30;4.28;;;22.20;99.90;;;;;;5032314;28;20894;-82
2023/07/03 10:41:50;;;;;;;7.00;4.20;;;22.30;99.90;;;;;;5030218;28;20908;-81
2023/07/03 10:44:38;;;;;;;6.22;4.28;;;22.20;99.90;;;;;;5035653;28;20929;-81
2023/07/03 10:47:16;;;;;;;8.57;4.20;;;22.10;99.90;;;;;;5037570;28;20394;-81
2023/07/03 10:49:43;;;;;;;7.63;4.35;;;22.10;99.90;;;;;;5038037;28;20896;-81
2023/07/03 10:52:17;;;;;;;4.70;3.77;;;22.20;99.90;;;;;;5038820;28;20405;-81
2023/07/03 10:54:45;;;;;;;6.65;4.28;;;22.20;99.90;;;;;;5045596;28;20445;-81
2023/07/03 10:57:18;;;;;;;6.60;4.15;;;22.00;99.90;;;;;;5058650;28;20394;-82
2023/07/03 10:59:49;;;;;;;5.35;3.30;;;22.10;99.90;;;;;;5059718;28;20407;-82
2023/07/03 11:02:35;;;;;;;6.00;4.47;;;22.10;99.90;;;;;;5043858;28;20437;-83
2023/07/03 11:05:08;;;;;;;8.13;3.80;;;22.10;99.90;;;;;;5034757;28;20429;-82
2023/07/03 11:08:10;;;;;;;5.25;3.60;;;22.30;99.90;;;;;;5035571;28;20773;-81
2023/07/03 11:10:45;;;;;;;5.25;4.30;;;22.20;99.90;;;;;;5023890;28;20961;-82
2023/07/03 11:13:25;;;;;;;5.82;3.92;;;22.50;99.90;;;;;;5027988;28;20391;-82
2023/07/03 11:16:00;;;;;;;6.40;3.85;;;22.50;99.90;;;;;;5038087;28;20750;-81
2023/07/03 11:18:31;;;;;;;4.70;3.50;;;22.70;99.90;;;;;;5032701;28;20437;-82
2023/07/03 11:21:12;;;;;;;4.90;3.47;;;22.60;99.90;;;;;;5033009;28;20395;-81
2023/07/03 11:23:43;;;;;;;4.85;3.20;;;22.60;99.90;;;;;;5034346;28;20387;-81
2023/07/03 11:26:25;;;;;;;5.50;3.67;;;22.60;99.90;;;;;;5032495;28;20402;-82
2023/07/03 11:28:54;;;;;;;5.43;3.72;;;22.80;99.90;;;;;;5034266;28;20393;-82
2023/07/03 11:31:20;;;;;;;6.70;4.00;;;22.90;99.90;;;;;;5033432;28;20426;-82
2023/07/03 11:33:46;;;;;;;5.60;3.40;;;22.80;99.90;;;;;;5033795;28;20426;-81
2023/07/03 11:36:39;;;;;;;5.88;3.63;;;22.70;99.90;;;;;;5035581;28;20457;-81
2023/07/03 11:39:19;;;;;;;5.60;3.53;;;22.60;99.90;;;;;;5020588;28;20393;-81
2023/07/03 11:41:54;;;;;;;6.35;3.80;;;22.50;99.90;;;;;;5015328;28;20399;-81
2023/07/03 11:44:31;;;;;;;6.90;3.50;;;22.70;99.90;;;;;;5015292;28;20889;-82
2023/07/03 11:47:04;;;;;;;6.90;3.67;;;22.80;99.90;;;;;;5019509;28;20416;-81
2023/07/03 11:49:37;;;;;;;5.22;2.83;;;23.40;99.90;;;;;;5034530;28;20403;-81
2023/07/03 11:52:06;;;;;;;6.27;3.20;;;23.30;99.90;;;;;;5023965;28;20420;-82
2023/07/03 11:54:35;;;;;;;7.03;3.47;;;23.20;99.90;;;;;;5020925;28;20411;-81
2023/07/03 11:57:10;;;;;;;6.68;3.70;;;23.40;99.90;;;;;;5036159;28;20394;-83
2023/07/03 11:59:42;;;;;;;5.80;3.20;;;23.30;99.90;;;;;;5033691;28;20398;-82
2023/07/03 12:02:11;;;;;;;6.18;3.60;;;23.20;99.90;;;;;;5039256;28;20723;-81
2023/07/03 12:04:46;;;;;;;5.05;3.00;;;23.30;99.90;;;;;;5045589;28;20384;-81
2023/07/03 12:07:18;;;;;;;5.10;3.07;;;23.20;99.90;;;;;;5028157;28;20427;-82
2023/07/03 12:09:43;;;;;;;4.60;3.50;;;22.80;99.90;;;;;;5031516;28;20402;-82
2023/07/03 12:12:26;;;;;;;5.30;3.20;;;22.80;99.90;;;;;;5035573;28;20391;-81
2023/07/03 12:15:01;;;;;;;5.32;3.00;;;22.80;99.90;;;;;;5026547;28;20437;-82
2023/07/03 12:17:30;;;;;;;4.22;3.00;;;22.70;99.90;;;;;;5028967;28;20915;-82
2023/07/03 12:20:13;;;;;;;7.03;3.58;;;22.90;99.90;;;;;;5029770;28;20503;-81
2023/07/03 12:22:44;;;;;;;4.00;3.25;;;23.20;99.90;;;;;;5038396;28;20423;-83
2023/07/03 12:25:28;;;;;;;6.55;3.60;;;23.00;99.90;;;;;;5034740;28;20916;-81
2023/07/03 12:28:07;;;;;;;4.25;3.60;;;22.90;99.90;;;;;;5033906;28;20875;-82
2023/07/03 12:30:33;;;;;;;4.65;3.30;;;23.00;99.90;;;;;;5024418;28;20410;-81
2023/07/03 12:33:01;;;;;;;6.57;3.85;;;23.20;99.90;;;;;;5031312;28;20414;-82
2023/07/03 12:35:32;;;;;;;6.28;3.90;;;23.40;99.90;;;;;;5029368;28;20407;-82
2023/07/03 12:38:08;;;;;;;6.15;3.60;;;23.40;99.90;;;;;;5030912;28;20411;-81
2023/07/03 12:40:41;;;;;;;4.03;3.17;;;23.10;99.90;;;;;;5024343;28;20391;-82
2023/07/03 12:43:08;;;;;;;5.38;3.72;;;24.00;99.90;;;;;;5024874;28;20409;-80
2023/07/03 12:45:33;;;;;;;4.60;3.60;;;23.90;99.90;;;;;;5035038;28;20474;-81
2023/07/03 12:48:02;;;;;;;8.07;3.55;;;24.30;99.90;;;;;;5035997;28;20402;-81
2023/07/03 12:50:27;;;;;;;8.15;3.40;;;24.60;99.90;;;;;;5031821;28;20408;-81